Hodgeville, Canada
Current Conditions -  °F | °C
As of 12:00 PM on Friday 24 Oct 2014 (Local Time) from CYYN Reporting Station
Clear Clear  
Wind Chill: 50°   Ceiling: Unl
Heat Index: 50°   Visibility: 9mi
Dew Point: 30°   Wind: 16mph
Humidity: 47%   Direction: 290°WNW
Pressure: 29.88"   Gusts: 24mph
Location:  50.12°N, 106.98°W
Report Text: CYYN 241800Z AUTO 29014G21KT 9SM CLR 10/M01 A2988 RMK SLP124 DENSITY ALT 2700FT
Loading
Personal Weather Stations






























Interactive Weather Map New forecast layout! Learn more

10-Day Weather Forecast

Advertisements
Track Severe Weather on mobile